Kimberly Turecamo — WDC6838 — position and weather

sailwx.info

Track history (hours):
 
Tides and Currents Weather Stations Pressure Air Temp Water Temp Dewpoint Dewpoint Depression Visibility Wind Speed Wind Dir Waves Ship Positions

Kimberly Turecamo

Owner: Moran Towing Corporation, New Canaan, CT. More information available from US FCC via Universal Licensing System and Coast Guard Vessel Documentation Center.

Last reported at 2017-Jun-23 05:00 UTC. Time now 2017-Jun-23 05:05 UTC.
Position N 40°48' W 073°59'.

Length 107 m; draft 5 m.

Type: Tug. MMSI: 367061980.

Date/timePositionNaut miles runAvg speedWind from/ knotsBaromVisibWave heightAir tempDewpointWater temp
2017-Jun-23 05:00N 40°48' W 073°59'0 0.0
2017-Jun-23 04:30N 40°48' W 073°59'0 0.2
2017-Jun-23 04:00N 40°48' W 073°59'0 0.1
2017-Jun-23 03:30N 40°48' W 073°59'0 0.0
2017-Jun-23 02:57N 40°48' W 073°59'0 0.0
2017-Jun-23 02:30N 40°48' W 073°59'0 0.0
2017-Jun-23 02:00N 40°48' W 073°59'0 0.0
2017-Jun-23 01:30N 40°48' W 073°59'0 0.0
2017-Jun-23 00:57N 40°48' W 073°59'0 0.0
2017-Jun-23 00:30N 40°48' W 073°59'0 0.0
2017-Jun-23 00:00N 40°48' W 073°59'0 0.0
2017-Jun-22 23:30N 40°48' W 073°59'0 0.0
2017-Jun-22 23:00N 40°48' W 073°59'0 0.0
2017-Jun-22 22:30N 40°48' W 073°59'0 0.0
2017-Jun-22 22:00N 40°48' W 073°59'0 0.0
2017-Jun-22 21:30N 40°48' W 073°59'0 0.0
2017-Jun-22 21:00N 40°48' W 073°59'0 0.1
2017-Jun-22 20:30N 40°48' W 073°59'0 0.1
2017-Jun-22 19:57N 40°48' W 073°59'0 0.2
2017-Jun-22 19:30N 40°48' W 073°59'0 0.0
2017-Jun-22 19:00N 40°48' W 073°59'0 0.5
2017-Jun-22 18:31N 40°48' W 073°59'3 6.3
2017-Jun-22 18:00N 40°45' W 074°01'3 6.4
2017-Jun-22 17:30N 40°42' W 074°02'3 4.9
2017-Jun-22 16:59N 40°39' W 074°03'0 0.1
2017-Jun-22 16:29N 40°39' W 074°03'4 8.0
2017-Jun-22 15:59N 40°38' W 074°08'2 4.0
2017-Jun-22 15:30N 40°39' W 074°10'4 7.9
2017-Jun-22 14:58N 40°35' W 074°13'3 1.0
2017-Jun-22 11:44N 40°32' W 074°15'2 7.2
2017-Jun-22 11:29N 40°34' W 074°13'4 8.7
2017-Jun-22 11:00N 40°38' W 074°12'3 5.8
2017-Jun-22 10:25N 40°38' W 074°08'0 0.0
2017-Jun-22 09:55N 40°38' W 074°08'0 0.0
2017-Jun-22 09:28N 40°38' W 074°08'0 0.0
2017-Jun-22 08:58N 40°38' W 074°08'0 0.0
2017-Jun-22 08:28N 40°38' W 074°08'0 0.0
2017-Jun-22 07:58N 40°38' W 074°08'0 0.0
2017-Jun-22 07:25N 40°38' W 074°08'0 0.0
2017-Jun-22 06:55N 40°38' W 074°08'0 0.0
2017-Jun-22 06:31N 40°38' W 074°08'0 0.0
2017-Jun-22 06:01N 40°38' W 074°08'0 0.0
2017-Jun-22 05:28N 40°38' W 074°08'0 0.0
2017-Jun-22 04:57N 40°38' W 074°08'0 0.0
2017-Jun-22 04:21N 40°38' W 074°08'0 0.0
2017-Jun-22 03:57N 40°38' W 074°08'0 0.0
2017-Jun-22 03:30N 40°38' W 074°08'0 0.0
2017-Jun-22 02:57N 40°38' W 074°08'0 1.0
2017-Jun-22 02:30N 40°39' W 074°07'3 6.6
2017-Jun-22 02:00N 40°37' W 074°03'0 0.1
2017-Jun-22 01:29N 40°37' W 074°03'0 0.4
2017-Jun-22 01:00N 40°37' W 074°03'3 6.5
2017-Jun-22 00:30N 40°39' W 074°07'1 1.7
2017-Jun-21 23:59N 40°38' W 074°08'3 5.4
2017-Jun-21 23:29N 40°39' W 074°11'7 4.1
2017-Jun-21 21:46N 40°32' W 074°15'0 0.0
2017-Jun-21 21:23N 40°32' W 074°15'3 5.5
2017-Jun-21 20:55N 40°34' W 074°13'4 9.8
2017-Jun-21 20:30N 40°38' W 074°12'3 6.2
2017-Jun-21 19:59N 40°38' W 074°08'0 0.0
2017-Jun-21 19:23N 40°38' W 074°08'0 0.0
2017-Jun-21 18:26N 40°38' W 074°08'0 0.0
2017-Jun-21 17:56N 40°38' W 074°08'0 0.0
2017-Jun-21 17:20N 40°38' W 074°08'0 0.1
2017-Jun-21 16:56N 40°38' W 074°08'2 4.9
2017-Jun-21 16:30N 40°41' W 074°08'2 3.5
2017-Jun-21 15:55N 40°38' W 074°09'2 5.3
2017-Jun-21 15:30N 40°39' W 074°06'3 5.7
2017-Jun-21 15:00N 40°37' W 074°03'1 1.7
2017-Jun-21 14:29N 40°36' W 074°03'4 3.6
2017-Jun-21 13:31N 40°39' W 074°06'1 2.7
2017-Jun-21 12:58N 40°38' W 074°08'0 0.0
2017-Jun-21 12:28N 40°38' W 074°08'0 0.0
2017-Jun-21 11:58N 40°38' W 074°08'0 0.0
2017-Jun-21 11:30N 40°38' W 074°08'3 6.2
2017-Jun-21 11:00N 40°40' W 074°04'2 3.1
2017-Jun-21 10:30N 40°39' W 074°06'2 3.0
2017-Jun-21 10:00N 40°38' W 074°08'0 0.0
2017-Jun-21 09:30N 40°38' W 074°08'1 2.6
2017-Jun-21 09:00N 40°39' W 074°06'4 6.6
2017-Jun-21 08:29N 40°40' W 074°02'3 5.6
2017-Jun-21 08:00N 40°39' W 074°05'2 4.0
2017-Jun-21 07:30N 40°39' W 074°08'3 6.0
2017-Jun-21 07:00N 40°38' W 074°12'1 1.0
2017-Jun-21 06:12N 40°38' W 074°12'0 0.0
2017-Jun-21 05:43N 40°38' W 074°12'2 7.3
2017-Jun-21 05:30N 40°39' W 074°11'2 2.3
2017-Jun-21 04:34N 40°38' W 074°08'0 0.0
2017-Jun-21 04:04N 40°38' W 074°08'0 0.0
2017-Jun-21 03:58N 40°38' W 074°08'0 0.0
2017-Jun-21 03:22N 40°38' W 074°08'0 0.0
2017-Jun-21 02:13N 40°38' W 074°08'0 0.0
2017-Jun-21 01:58N 40°38' W 074°08'0 0.0
2017-Jun-21 01:28N 40°38' W 074°08'1 1.2
2017-Jun-21 01:00N 40°39' W 074°07'4 7.0
2017-Jun-21 00:30N 40°39' W 074°03'0 0.1
2017-Jun-21 00:00N 40°39' W 074°02'0 0.0
2017-Jun-20 23:30N 40°39' W 074°02'0 0.0
2017-Jun-20 23:00N 40°39' W 074°02'0 0.0
2017-Jun-20 22:30N 40°39' W 074°02'0 0.0
2017-Jun-20 22:00N 40°39' W 074°02'0 0.0
2017-Jun-20 21:30N 40°39' W 074°02'0 0.0
2017-Jun-20 21:00N 40°39' W 074°02'0 0.0
2017-Jun-20 20:30N 40°39' W 074°02'0 0.0
2017-Jun-20 20:00N 40°39' W 074°02'0 0.0
2017-Jun-20 19:30N 40°39' W 074°02'0 0.0
2017-Jun-20 19:00N 40°39' W 074°02'0 0.0
2017-Jun-20 18:30N 40°39' W 074°02'0 0.0
2017-Jun-20 18:00N 40°39' W 074°02'0 0.0
2017-Jun-20 17:30N 40°39' W 074°02'0 0.1
2017-Jun-20 17:00N 40°39' W 074°02'0 0.0
2017-Jun-20 16:30N 40°39' W 074°02'1 1.7
2017-Jun-20 16:00N 40°39' W 074°03'3 6.5
2017-Jun-20 15:30N 40°38' W 074°08'1 2.0
2017-Jun-20 15:01N 40°39' W 074°07'2 4.8
2017-Jun-20 14:30N 40°38' W 074°04'5 5.5
2017-Jun-20 13:31N 40°42' W 074°09'0 0.3
2017-Jun-20 13:00N 40°42' W 074°09'3 6.8
2017-Jun-20 12:30N 40°38' W 074°09'1 1.2
2017-Jun-20 12:00N 40°38' W 074°08'0 0.0
2017-Jun-20 11:30N 40°38' W 074°08'0 0.0
2017-Jun-20 10:57N 40°38' W 074°08'0 0.0
2017-Jun-20 10:30N 40°38' W 074°08'0 0.0
2017-Jun-20 10:00N 40°38' W 074°08'0 0.0
2017-Jun-20 09:30N 40°38' W 074°08'0 0.0
2017-Jun-20 09:00N 40°38' W 074°08'0 0.0
2017-Jun-20 08:30N 40°38' W 074°08'0 0.0
2017-Jun-20 08:00N 40°38' W 074°08'0 0.0
2017-Jun-20 07:30N 40°38' W 074°08'0 0.0
2017-Jun-20 07:00N 40°38' W 074°08'0 0.0
2017-Jun-20 06:30N 40°38' W 074°08'0 0.0
2017-Jun-20 06:00N 40°38' W 074°08'0 0.0
2017-Jun-20 05:30N 40°38' W 074°08'0 0.0
2017-Jun-20 05:00N 40°38' W 074°08'0 0.0
2017-Jun-20 04:30N 40°38' W 074°08'0 0.0
2017-Jun-20 04:00N 40°38' W 074°08'0 0.0
2017-Jun-20 03:30N 40°38' W 074°08'0 0.0
2017-Jun-20 03:00N 40°38' W 074°08'0 0.0
2017-Jun-20 02:27N 40°38' W 074°08'0 0.0
2017-Jun-20 01:57N 40°38' W 074°08'0 0.0
2017-Jun-20 01:30N 40°38' W 074°08'2 4.7
2017-Jun-20 01:01N 40°39' W 074°05'2 3.5
2017-Jun-20 00:29N 40°39' W 074°02'0 0.0
2017-Jun-19 23:59N 40°39' W 074°02'0 0.0
2017-Jun-19 23:29N 40°39' W 074°02'0 0.0
2017-Jun-19 22:59N 40°39' W 074°02'0 0.0
2017-Jun-19 22:29N 40°39' W 074°02'0 0.0
2017-Jun-19 21:59N 40°39' W 074°02'0 0.0
2017-Jun-19 21:29N 40°39' W 074°02'0 0.1
2017-Jun-19 20:59N 40°39' W 074°02'0 0.0
2017-Jun-19 20:29N 40°39' W 074°02'0 0.1
2017-Jun-19 19:59N 40°39' W 074°03'1 1.7
2017-Jun-19 19:30N 40°39' W 074°04'3 4.7
2017-Jun-19 18:49N 40°38' W 074°08'0 0.0
2017-Jun-19 18:25N 40°38' W 074°08'0 0.0
2017-Jun-19 17:55N 40°38' W 074°08'0 0.0
2017-Jun-19 17:25N 40°38' W 074°08'0 0.0
2017-Jun-19 16:55N 40°38' W 074°08'0 0.0
2017-Jun-19 16:25N 40°38' W 074°08'0 0.0
2017-Jun-19 15:55N 40°38' W 074°08'0 0.0
2017-Jun-19 15:25N 40°38' W 074°08'0 0.0
2017-Jun-19 14:58N 40°38' W 074°08'0 0.0
2017-Jun-19 13:49N 40°38' W 074°08'0 0.0
2017-Jun-19 13:25N 40°38' W 074°08'0 0.0
2017-Jun-19 12:49N 40°38' W 074°08'0 0.0
2017-Jun-19 12:25N 40°38' W 074°08'0 0.0
2017-Jun-19 11:49N 40°38' W 074°08'0 0.0
2017-Jun-19 11:25N 40°38' W 074°08'2 5.1
2017-Jun-19 11:00N 40°40' W 074°08'1 2.9
2017-Jun-19 10:31N 40°42' W 074°09'0 0.1
2017-Jun-19 10:01N 40°42' W 074°09'1 2.1
2017-Jun-19 09:31N 40°41' W 074°08'3 5.0
2017-Jun-19 09:00N 40°39' W 074°08'4 7.3
2017-Jun-19 08:30N 40°39' W 074°04'3 6.4
2017-Jun-19 08:00N 40°38' W 074°08'0 0.1
2017-Jun-19 07:30N 40°38' W 074°08'0 0.0
2017-Jun-19 07:00N 40°38' W 074°08'0 0.0
2017-Jun-19 06:30N 40°38' W 074°08'0 0.0
2017-Jun-19 06:00N 40°38' W 074°08'0 0.0
2017-Jun-19 05:29N 40°38' W 074°08'0 0.0
2017-Jun-19 05:00N 40°38' W 074°08'0 0.0
2017-Jun-19 04:29N 40°38' W 074°08'0 0.0
2017-Jun-19 04:00N 40°38' W 074°08'0 0.0
2017-Jun-19 03:30N 40°38' W 074°08'0 0.0
2017-Jun-19 03:00N 40°38' W 074°08'0 0.0
2017-Jun-19 02:30N 40°38' W 074°08'0 0.0
2017-Jun-19 02:00N 40°38' W 074°08'0 0.0
2017-Jun-19 01:30N 40°38' W 074°08'0 0.0
2017-Jun-19 01:00N 40°38' W 074°08'0 0.0
2017-Jun-19 00:30N 40°38' W 074°08'0 0.0
2017-Jun-19 00:00N 40°38' W 074°08'0 0.0
2017-Jun-18 23:30N 40°38' W 074°08'0 0.0
2017-Jun-18 23:00N 40°38' W 074°08'0 0.0
2017-Jun-18 22:30N 40°38' W 074°08'0 0.0
2017-Jun-18 22:00N 40°38' W 074°08'0 0.0
2017-Jun-18 21:30N 40°38' W 074°08'0 0.0
2017-Jun-18 21:00N 40°38' W 074°08'0 0.0
2017-Jun-18 20:29N 40°38' W 074°08'0 0.0
2017-Jun-18 20:00N 40°38' W 074°08'0 0.0
2017-Jun-18 19:30N 40°38' W 074°08'0 0.0
2017-Jun-18 19:00N 40°38' W 074°08'0 0.0
2017-Jun-18 18:30N 40°38' W 074°08'0 0.0
2017-Jun-18 18:00N 40°38' W 074°08'0 0.0
2017-Jun-18 17:30N 40°38' W 074°08'0 0.0
2017-Jun-18 17:00N 40°38' W 074°08'2 4.4
2017-Jun-18 16:29N 40°39' W 074°11'5 3.0
2017-Jun-18 14:46N 40°34' W 074°13'5 5.9
2017-Jun-18 13:59N 40°38' W 074°12'3 6.4
2017-Jun-18 13:30N 40°39' W 074°08'3 5.7
2017-Jun-18 13:00N 40°39' W 074°04'0 0.6
2017-Jun-18 12:30N 40°38' W 074°04'3 5.4
2017-Jun-18 11:58N 40°38' W 074°08'0 0.0
2017-Jun-18 11:16N 40°38' W 074°08'0 0.0
2017-Jun-18 10:52N 40°38' W 074°08'0 0.0
2017-Jun-18 10:16N 40°38' W 074°08'0 0.0
2017-Jun-18 09:52N 40°38' W 074°08'0 0.0
2017-Jun-18 09:28N 40°38' W 074°08'0 0.0
2017-Jun-18 08:52N 40°38' W 074°08'0 0.0
2017-Jun-18 08:22N 40°38' W 074°08'0 0.0
2017-Jun-18 07:58N 40°38' W 074°08'0 0.0
2017-Jun-18 07:28N 40°38' W 074°08'0 0.0
2017-Jun-18 06:58N 40°38' W 074°08'0 0.0
2017-Jun-18 06:28N 40°38' W 074°08'0 0.0
2017-Jun-18 05:58N 40°38' W 074°08'0 0.0
2017-Jun-18 05:28N 40°38' W 074°08'0 0.0
2017-Jun-18 04:58N 40°38' W 074°08'0 0.0
2017-Jun-18 04:28N 40°38' W 074°08'0 0.0
2017-Jun-18 03:58N 40°38' W 074°08'0 0.0
2017-Jun-18 03:22N 40°38' W 074°08'0 0.0
2017-Jun-18 03:00N 40°38' W 074°08'0 0.0
2017-Jun-17 21:10N 40°38' W 074°08'0 0.0
2017-Jun-17 20:52N 40°38' W 074°08'0 0.0
2017-Jun-17 20:28N 40°38' W 074°08'0 0.0
2017-Jun-17 19:58N 40°38' W 074°08'0 0.0
2017-Jun-17 19:28N 40°38' W 074°08'0 0.0
2017-Jun-17 18:55N 40°38' W 074°08'0 0.0
2017-Jun-17 18:28N 40°38' W 074°08'0 0.0
2017-Jun-17 17:58N 40°38' W 074°08'0 0.0
2017-Jun-17 17:25N 40°38' W 074°08'0 0.0
2017-Jun-17 16:58N 40°38' W 074°08'0 0.0
2017-Jun-17 16:28N 40°38' W 074°08'0 0.0
2017-Jun-17 15:55N 40°38' W 074°08'0 0.0
2017-Jun-17 15:13N 40°38' W 074°08'0 0.0
2017-Jun-17 14:55N 40°38' W 074°08'0 0.0
2017-Jun-17 14:25N 40°38' W 074°08'0 0.0
2017-Jun-17 12:49N 40°38' W 074°08'0 0.0
2017-Jun-17 12:19N 40°38' W 074°08'0 0.0
2017-Jun-17 11:49N 40°38' W 074°08'0 0.0
2017-Jun-17 11:25N 40°38' W 074°08'0 0.0
2017-Jun-17 10:54N 40°38' W 074°08'1 1.2
2017-Jun-17 10:23N 40°39' W 074°07'1 1.6
2017-Jun-17 09:59N 40°38' W 074°08'0 0.0
2017-Jun-17 09:29N 40°38' W 074°08'0 0.0
2017-Jun-17 08:59N 40°38' W 074°08'0 0.0
2017-Jun-17 08:29N 40°38' W 074°08'0 0.0
2017-Jun-17 07:59N 40°38' W 074°08'0 0.0
2017-Jun-17 07:29N 40°38' W 074°08'0 0.0
2017-Jun-17 06:59N 40°38' W 074°08'0 0.0
2017-Jun-17 06:29N 40°38' W 074°08'0 0.0
2017-Jun-17 05:59N 40°38' W 074°08'0 0.0
2017-Jun-17 05:29N 40°38' W 074°08'0 0.0
2017-Jun-17 04:59N 40°38' W 074°08'0 0.0
2017-Jun-17 04:29N 40°38' W 074°08'0 0.0
2017-Jun-17 03:59N 40°38' W 074°08'0 0.0
2017-Jun-17 03:29N 40°38' W 074°08'0 0.0
2017-Jun-17 02:59N 40°38' W 074°08'0 0.0
2017-Jun-17 02:29N 40°38' W 074°08'0 0.0
2017-Jun-17 01:59N 40°38' W 074°08'0 0.0
2017-Jun-17 01:29N 40°38' W 074°08'0 0.0
2017-Jun-17 00:59N 40°38' W 074°08'0 0.0
2017-Jun-17 00:29N 40°38' W 074°08'0 0.0
2017-Jun-16 23:59N 40°38' W 074°08'0 0.0
2017-Jun-16 23:29N 40°38' W 074°08'0 0.0
2017-Jun-16 22:59N 40°38' W 074°08'0 0.0
2017-Jun-16 22:29N 40°38' W 074°08'0 0.0
2017-Jun-16 21:56N 40°38' W 074°08'0 0.0
2017-Jun-16 21:29N 40°38' W 074°08'0 0.0
2017-Jun-16 20:59N 40°38' W 074°08'3 5.3
2017-Jun-16 20:28N 40°41' W 074°08'1 1.2
2017-Jun-16 19:57N 40°42' W 074°08'0 0.2
2017-Jun-16 19:21N 40°42' W 074°09'0 0.0
2017-Jun-16 18:57N 40°42' W 074°09'0 0.0
2017-Jun-16 18:27N 40°42' W 074°09'0 0.0
2017-Jun-16 17:56N 40°42' W 074°09'0 0.0
2017-Jun-16 17:26N 40°42' W 074°09'0 0.0
2017-Jun-16 16:59N 40°42' W 074°09'0 0.0
2017-Jun-16 16:29N 40°42' W 074°09'0 0.6
2017-Jun-16 15:59N 40°42' W 074°09'0 0.7
2017-Jun-16 15:25N 40°42' W 074°08'2 4.7
2017-Jun-16 15:00N 40°40' W 074°08'1 1.4
2017-Jun-16 14:00N 40°38' W 074°08'0 0.0
2017-Jun-16 13:30N 40°38' W 074°08'0 0.0
2017-Jun-16 13:00N 40°38' W 074°08'1 1.0
2017-Jun-16 12:30N 40°39' W 074°07'3 5.6
2017-Jun-16 12:00N 40°39' W 074°04'3 6.5
2017-Jun-16 11:30N 40°38' W 074°08'0 0.0
2017-Jun-16 11:00N 40°38' W 074°08'0 0.0
2017-Jun-16 10:30N 40°38' W 074°08'0 0.0
2017-Jun-16 10:00N 40°38' W 074°08'0 0.0
2017-Jun-16 09:30N 40°38' W 074°08'0 0.0
2017-Jun-16 09:00N 40°38' W 074°08'0 0.0
2017-Jun-16 08:30N 40°38' W 074°08'0 0.0
2017-Jun-16 07:59N 40°38' W 074°08'0 0.0
2017-Jun-16 07:30N 40°38' W 074°08'0 0.0
2017-Jun-16 06:59N 40°38' W 074°08'0 0.0
2017-Jun-16 06:30N 40°38' W 074°08'0 0.0
2017-Jun-16 06:00N 40°38' W 074°08'0 0.0
2017-Jun-16 05:30N 40°38' W 074°08'3 5.7
2017-Jun-16 05:00N 40°38' W 074°12'3 5.4
2017-Jun-16 04:23N 40°35' W 074°12'0 0.2
2017-Jun-16 03:52N 40°35' W 074°13'0 0.0
2017-Jun-16 03:28N 40°35' W 074°13'0 0.9
2017-Jun-16 02:58N 40°35' W 074°12'0 0.0
2017-Jun-16 02:26N 40°35' W 074°12'1 2.2
2017-Jun-16 02:00N 40°34' W 074°13'4 6.6
2017-Jun-16 01:27N 40°31' W 074°15'0 0.0
2017-Jun-16 00:59N 40°31' W 074°15'0 0.1
2017-Jun-16 00:30N 40°31' W 074°15'2 0.5
2017-Jun-15 20:39N 40°33' W 074°15'210.1
2017-Jun-15 20:27N 40°34' W 074°13'4 9.9
2017-Jun-15 20:00N 40°38' W 074°12'3 5.7
2017-Jun-15 19:30N 40°38' W 074°08'0 0.0
2017-Jun-15 19:00N 40°38' W 074°08'0 0.0
2017-Jun-15 18:30N 40°38' W 074°08'0 0.9
2017-Jun-15 18:00N 40°39' W 074°07'2 3.4
2017-Jun-15 17:30N 40°39' W 074°05'0 0.3
2017-Jun-15 17:01N 40°39' W 074°05'1 2.4
2017-Jun-15 16:30N 40°39' W 074°07'0 0.0
2017-Jun-15 16:00N 40°39' W 074°07'0 0.4
2017-Jun-15 15:30N 40°39' W 074°07'1 1.4
2017-Jun-15 14:55N 40°38' W 074°08'0 0.0
2017-Jun-15 14:28N 40°38' W 074°08'0 0.0
2017-Jun-15 13:28N 40°38' W 074°08'0 0.0
2017-Jun-15 12:58N 40°38' W 074°08'0 0.0
2017-Jun-15 12:28N 40°38' W 074°08'0 0.0
2017-Jun-15 11:58N 40°38' W 074°08'0 0.0
2017-Jun-15 11:28N 40°38' W 074°08'0 0.0
2017-Jun-15 11:01N 40°38' W 074°08'0 0.0
2017-Jun-15 10:31N 40°38' W 074°08'3 5.7
2017-Jun-15 10:01N 40°39' W 074°04'1 2.6
2017-Jun-15 09:30N 40°39' W 074°02'510.4
2017-Jun-15 09:00N 40°45' W 074°01'3 5.3
2017-Jun-15 08:30N 40°47' W 073°60'0 0.2
2017-Jun-15 08:00N 40°47' W 073°60'0 0.1
2017-Jun-15 07:30N 40°47' W 073°60'0 0.0
2017-Jun-15 07:00N 40°47' W 073°60'0 0.0
2017-Jun-15 06:30N 40°47' W 073°60'0 0.0
2017-Jun-15 06:00N 40°47' W 073°60'0 0.0
2017-Jun-15 05:30N 40°47' W 073°60'0 0.0
2017-Jun-15 05:00N 40°47' W 073°60'0 0.0
2017-Jun-15 04:30N 40°47' W 073°60'0 0.0
2017-Jun-15 04:00N 40°47' W 073°60'0 0.0
2017-Jun-15 03:30N 40°47' W 073°60'0 0.0
2017-Jun-15 03:00N 40°47' W 073°60'0 0.1
2017-Jun-15 02:27N 40°47' W 073°60'0 0.0
2017-Jun-15 02:00N 40°47' W 073°60'0 0.1
2017-Jun-15 01:30N 40°47' W 073°60'0 0.0
2017-Jun-15 01:00N 40°47' W 073°60'0 0.0
2017-Jun-15 00:30N 40°47' W 073°60'0 0.0
2017-Jun-15 00:00N 40°47' W 073°60'0 0.0
2017-Jun-14 23:30N 40°47' W 073°60'0 0.0
2017-Jun-14 23:00N 40°47' W 073°60'0 0.0
2017-Jun-14 22:30N 40°47' W 073°60'0 0.0
2017-Jun-14 22:00N 40°47' W 073°60'0 0.0
2017-Jun-14 21:30N 40°47' W 073°60'0 0.2
2017-Jun-14 21:00N 40°47' W 073°60'0 0.1
2017-Jun-14 20:30N 40°47' W 073°60'0 0.0
2017-Jun-14 20:00N 40°47' W 073°60'0 0.0
2017-Jun-14 19:30N 40°47' W 073°60'2 4.7
2017-Jun-14 19:00N 40°45' W 074°01'5 9.4
2017-Jun-14 18:31N 40°41' W 074°02'2 4.9
2017-Jun-14 18:01N 40°38' W 074°04'0 0.1
2017-Jun-14 17:30N 40°38' W 074°04'0 0.1
2017-Jun-14 17:01N 40°38' W 074°04'0 0.2
2017-Jun-14 16:31N 40°38' W 074°04'0 0.1
2017-Jun-14 16:00N 40°39' W 074°04'2 4.0
2017-Jun-14 15:30N 40°40' W 074°03'2 4.8
2017-Jun-14 15:01N 40°43' W 074°02'5 5.2
2017-Jun-14 14:00N 40°47' W 073°59'0 0.1
2017-Jun-14 13:30N 40°48' W 073°59'0 0.0
2017-Jun-14 13:00N 40°48' W 073°59'0 0.0
2017-Jun-14 12:30N 40°48' W 073°59'0 0.0
2017-Jun-14 12:00N 40°48' W 073°59'0 0.0
2017-Jun-14 11:30N 40°48' W 073°59'0 0.0
2017-Jun-14 11:00N 40°48' W 073°59'0 0.0
2017-Jun-14 10:30N 40°48' W 073°59'0 0.0
2017-Jun-14 10:00N 40°48' W 073°59'0 0.0
2017-Jun-14 09:30N 40°48' W 073°59'0 0.0
2017-Jun-14 09:00N 40°48' W 073°59'0 0.0
2017-Jun-14 08:30N 40°48' W 073°59'0 0.0
2017-Jun-14 08:00N 40°48' W 073°59'0 0.1
2017-Jun-14 07:27N 40°48' W 073°59'0 0.1
2017-Jun-14 07:00N 40°48' W 073°59'0 0.1
2017-Jun-14 06:30N 40°48' W 073°59'0 0.0
2017-Jun-14 06:00N 40°48' W 073°59'0 0.0
2017-Jun-14 05:30N 40°48' W 073°59'0 0.0
2017-Jun-14 05:00N 40°48' W 073°59'0 0.0
2017-Jun-14 04:30N 40°48' W 073°59'0 0.0
2017-Jun-14 04:00N 40°48' W 073°59'0 0.0
2017-Jun-14 03:30N 40°48' W 073°59'0 0.0
2017-Jun-14 03:00N 40°48' W 073°59'0 0.0
2017-Jun-14 02:30N 40°48' W 073°59'0 0.1
2017-Jun-14 02:00N 40°48' W 073°59'0 0.2
2017-Jun-14 01:30N 40°48' W 073°59'0 0.0
2017-Jun-14 01:00N 40°48' W 073°59'0 0.0
2017-Jun-14 00:27N 40°48' W 073°59'0 0.0
2017-Jun-14 00:00N 40°48' W 073°59'0 0.0
2017-Jun-13 23:30N 40°48' W 073°59'0 0.0
2017-Jun-13 23:00N 40°48' W 073°59'0 0.0
2017-Jun-13 22:30N 40°48' W 073°59'0 0.0
2017-Jun-13 22:00N 40°48' W 073°59'0 0.0
2017-Jun-13 21:30N 40°48' W 073°59'0 0.0
2017-Jun-13 20:57N 40°48' W 073°59'0 0.0
2017-Jun-13 20:30N 40°48' W 073°59'0 0.0
2017-Jun-13 20:00N 40°48' W 073°59'0 0.1
2017-Jun-13 19:30N 40°48' W 073°59'0 0.1
2017-Jun-13 19:00N 40°48' W 073°59'0 0.1
2017-Jun-13 18:30N 40°48' W 073°59'0 0.0
2017-Jun-13 18:00N 40°48' W 073°59'0 0.0
2017-Jun-13 17:30N 40°48' W 073°59'0 0.1
2017-Jun-13 17:00N 40°48' W 073°59'0 0.0
2017-Jun-13 16:30N 40°48' W 073°59'0 0.0
2017-Jun-13 16:00N 40°48' W 073°59'0 0.0
2017-Jun-13 15:30N 40°48' W 073°59'0 0.1
2017-Jun-13 15:00N 40°48' W 073°59'0 0.0
2017-Jun-13 13:59N 40°48' W 073°59'0 0.1
2017-Jun-13 13:29N 40°48' W 073°59'0 0.0
2017-Jun-13 12:59N 40°48' W 073°59'0 0.0
2017-Jun-13 12:23N 40°48' W 073°59'0 0.0
2017-Jun-13 11:59N 40°48' W 073°59'0 0.0
2017-Jun-13 11:27N 40°48' W 073°59'0 0.0
2017-Jun-13 10:59N 40°48' W 073°59'0 0.0
2017-Jun-13 10:29N 40°48' W 073°59'0 0.0
2017-Jun-13 09:59N 40°48' W 073°59'0 0.0
2017-Jun-13 09:29N 40°48' W 073°59'0 0.0
2017-Jun-13 08:59N 40°48' W 073°59'0 0.0
2017-Jun-13 08:29N 40°48' W 073°59'0 0.0
2017-Jun-13 07:53N 40°48' W 073°59'0 0.0
2017-Jun-13 07:29N 40°48' W 073°59'0 0.1
2017-Jun-13 06:59N 40°48' W 073°59'0 0.1
2017-Jun-13 06:29N 40°48' W 073°59'0 0.0
2017-Jun-13 05:59N 40°48' W 073°59'0 0.0
2017-Jun-13 05:29N 40°48' W 073°59'  
Track history (hours):
 
Tides and Currents Weather Stations Pressure Air Temp Water Temp Dewpoint Dewpoint Depression Visibility Wind Speed Wind Dir Waves Ship Positions

Kimberly Turecamo

Owner: Moran Towing Corporation, New Canaan, CT. More information available from US FCC via Universal Licensing System and Coast Guard Vessel Documentation Center.

Last reported at 2017-Jun-23 05:00 UTC. Time now 2017-Jun-23 05:05 UTC.
Position N 40°48' W 073°59'.

Length 107 m; draft 5 m.

Type: Tug. MMSI: 367061980.

Date/timePositionNaut miles runAvg speedWind from/ knotsBaromVisibWave heightAir tempDewpointWater temp
2017-Jun-23 05:00N 40°48' W 073°59'0 0.0
2017-Jun-23 04:30N 40°48' W 073°59'0 0.2
2017-Jun-23 04:00N 40°48' W 073°59'0 0.1
2017-Jun-23 03:30N 40°48' W 073°59'0 0.0
2017-Jun-23 02:57N 40°48' W 073°59'0 0.0
2017-Jun-23 02:30N 40°48' W 073°59'0 0.0
2017-Jun-23 02:00N 40°48' W 073°59'0 0.0
2017-Jun-23 01:30N 40°48' W 073°59'0 0.0
2017-Jun-23 00:57N 40°48' W 073°59'0 0.0
2017-Jun-23 00:30N 40°48' W 073°59'0 0.0
2017-Jun-23 00:00N 40°48' W 073°59'0 0.0
2017-Jun-22 23:30N 40°48' W 073°59'0 0.0
2017-Jun-22 23:00N 40°48' W 073°59'0 0.0
2017-Jun-22 22:30N 40°48' W 073°59'0 0.0
2017-Jun-22 22:00N 40°48' W 073°59'0 0.0
2017-Jun-22 21:30N 40°48' W 073°59'0 0.0
2017-Jun-22 21:00N 40°48' W 073°59'0 0.1
2017-Jun-22 20:30N 40°48' W 073°59'0 0.1
2017-Jun-22 19:57N 40°48' W 073°59'0 0.2
2017-Jun-22 19:30N 40°48' W 073°59'0 0.0
2017-Jun-22 19:00N 40°48' W 073°59'0 0.5
2017-Jun-22 18:31N 40°48' W 073°59'3 6.3
2017-Jun-22 18:00N 40°45' W 074°01'3 6.4
2017-Jun-22 17:30N 40°42' W 074°02'3 4.9
2017-Jun-22 16:59N 40°39' W 074°03'0 0.1
2017-Jun-22 16:29N 40°39' W 074°03'4 8.0
2017-Jun-22 15:59N 40°38' W 074°08'2 4.0
2017-Jun-22 15:30N 40°39' W 074°10'4 7.9
2017-Jun-22 14:58N 40°35' W 074°13'3 1.0
2017-Jun-22 11:44N 40°32' W 074°15'2 7.2
2017-Jun-22 11:29N 40°34' W 074°13'4 8.7
2017-Jun-22 11:00N 40°38' W 074°12'3 5.8
2017-Jun-22 10:25N 40°38' W 074°08'0 0.0
2017-Jun-22 09:55N 40°38' W 074°08'0 0.0
2017-Jun-22 09:28N 40°38' W 074°08'0 0.0
2017-Jun-22 08:58N 40°38' W 074°08'0 0.0
2017-Jun-22 08:28N 40°38' W 074°08'0 0.0
2017-Jun-22 07:58N 40°38' W 074°08'0 0.0
2017-Jun-22 07:25N 40°38' W 074°08'0 0.0
2017-Jun-22 06:55N 40°38' W 074°08'0 0.0
2017-Jun-22 06:31N 40°38' W 074°08'0 0.0
2017-Jun-22 06:01N 40°38' W 074°08'0 0.0
2017-Jun-22 05:28N 40°38' W 074°08'0 0.0
2017-Jun-22 04:57N 40°38' W 074°08'0 0.0
2017-Jun-22 04:21N 40°38' W 074°08'0 0.0
2017-Jun-22 03:57N 40°38' W 074°08'0 0.0
2017-Jun-22 03:30N 40°38' W 074°08'0 0.0
2017-Jun-22 02:57N 40°38' W 074°08'0 1.0
2017-Jun-22 02:30N 40°39' W 074°07'3 6.6
2017-Jun-22 02:00N 40°37' W 074°03'0 0.1
2017-Jun-22 01:29N 40°37' W 074°03'0 0.4
2017-Jun-22 01:00N 40°37' W 074°03'3 6.5
2017-Jun-22 00:30N 40°39' W 074°07'1 1.7
2017-Jun-21 23:59N 40°38' W 074°08'3 5.4
2017-Jun-21 23:29N 40°39' W 074°11'7 4.1
2017-Jun-21 21:46N 40°32' W 074°15'0 0.0
2017-Jun-21 21:23N 40°32' W 074°15'3 5.5
2017-Jun-21 20:55N 40°34' W 074°13'4 9.8
2017-Jun-21 20:30N 40°38' W 074°12'3 6.2
2017-Jun-21 19:59N 40°38' W 074°08'0 0.0
2017-Jun-21 19:23N 40°38' W 074°08'0 0.0
2017-Jun-21 18:26N 40°38' W 074°08'0 0.0
2017-Jun-21 17:56N 40°38' W 074°08'0 0.0
2017-Jun-21 17:20N 40°38' W 074°08'0 0.1
2017-Jun-21 16:56N 40°38' W 074°08'2 4.9
2017-Jun-21 16:30N 40°41' W 074°08'2 3.5
2017-Jun-21 15:55N 40°38' W 074°09'2 5.3
2017-Jun-21 15:30N 40°39' W 074°06'3 5.7
2017-Jun-21 15:00N 40°37' W 074°03'1 1.7
2017-Jun-21 14:29N 40°36' W 074°03'4 3.6
2017-Jun-21 13:31N 40°39' W 074°06'1 2.7
2017-Jun-21 12:58N 40°38' W 074°08'0 0.0
2017-Jun-21 12:28N 40°38' W 074°08'0 0.0
2017-Jun-21 11:58N 40°38' W 074°08'0 0.0
2017-Jun-21 11:30N 40°38' W 074°08'3 6.2
2017-Jun-21 11:00N 40°40' W 074°04'2 3.1
2017-Jun-21 10:30N 40°39' W 074°06'2 3.0
2017-Jun-21 10:00N 40°38' W 074°08'0 0.0
2017-Jun-21 09:30N 40°38' W 074°08'1 2.6
2017-Jun-21 09:00N 40°39' W 074°06'4 6.6
2017-Jun-21 08:29N 40°40' W 074°02'3 5.6
2017-Jun-21 08:00N 40°39' W 074°05'2 4.0
2017-Jun-21 07:30N 40°39' W 074°08'3 6.0
2017-Jun-21 07:00N 40°38' W 074°12'1 1.0
2017-Jun-21 06:12N 40°38' W 074°12'0 0.0
2017-Jun-21 05:43N 40°38' W 074°12'2 7.3
2017-Jun-21 05:30N 40°39' W 074°11'2 2.3
2017-Jun-21 04:34N 40°38' W 074°08'0 0.0
2017-Jun-21 04:04N 40°38' W 074°08'0 0.0
2017-Jun-21 03:58N 40°38' W 074°08'0 0.0
2017-Jun-21 03:22N 40°38' W 074°08'0 0.0
2017-Jun-21 02:13N 40°38' W 074°08'0 0.0
2017-Jun-21 01:58N 40°38' W 074°08'0 0.0
2017-Jun-21 01:28N 40°38' W 074°08'1 1.2
2017-Jun-21 01:00N 40°39' W 074°07'4 7.0
2017-Jun-21 00:30N 40°39' W 074°03'0 0.1
2017-Jun-21 00:00N 40°39' W 074°02'0 0.0
2017-Jun-20 23:30N 40°39' W 074°02'0 0.0
2017-Jun-20 23:00N 40°39' W 074°02'0 0.0
2017-Jun-20 22:30N 40°39' W 074°02'0 0.0
2017-Jun-20 22:00N 40°39' W 074°02'0 0.0
2017-Jun-20 21:30N 40°39' W 074°02'0 0.0
2017-Jun-20 21:00N 40°39' W 074°02'0 0.0
2017-Jun-20 20:30N 40°39' W 074°02'0 0.0
2017-Jun-20 20:00N 40°39' W 074°02'0 0.0
2017-Jun-20 19:30N 40°39' W 074°02'0 0.0
2017-Jun-20 19:00N 40°39' W 074°02'0 0.0
2017-Jun-20 18:30N 40°39' W 074°02'0 0.0
2017-Jun-20 18:00N 40°39' W 074°02'0 0.0
2017-Jun-20 17:30N 40°39' W 074°02'0 0.1
2017-Jun-20 17:00N 40°39' W 074°02'0 0.0
2017-Jun-20 16:30N 40°39' W 074°02'1 1.7
2017-Jun-20 16:00N 40°39' W 074°03'3 6.5
2017-Jun-20 15:30N 40°38' W 074°08'1 2.0
2017-Jun-20 15:01N 40°39' W 074°07'2 4.8
2017-Jun-20 14:30N 40°38' W 074°04'5 5.5
2017-Jun-20 13:31N 40°42' W 074°09'0 0.3
2017-Jun-20 13:00N 40°42' W 074°09'3 6.8
2017-Jun-20 12:30N 40°38' W 074°09'1 1.2
2017-Jun-20 12:00N 40°38' W 074°08'0 0.0
2017-Jun-20 11:30N 40°38' W 074°08'0 0.0
2017-Jun-20 10:57N 40°38' W 074°08'0 0.0
2017-Jun-20 10:30N 40°38' W 074°08'0 0.0
2017-Jun-20 10:00N 40°38' W 074°08'0 0.0
2017-Jun-20 09:30N 40°38' W 074°08'0 0.0
2017-Jun-20 09:00N 40°38' W 074°08'0 0.0
2017-Jun-20 08:30N 40°38' W 074°08'0 0.0
2017-Jun-20 08:00N 40°38' W 074°08'0 0.0
2017-Jun-20 07:30N 40°38' W 074°08'0 0.0
2017-Jun-20 07:00N 40°38' W 074°08'0 0.0
2017-Jun-20 06:30N 40°38' W 074°08'0 0.0
2017-Jun-20 06:00N 40°38' W 074°08'0 0.0
2017-Jun-20 05:30N 40°38' W 074°08'0 0.0
2017-Jun-20 05:00N 40°38' W 074°08'0 0.0
2017-Jun-20 04:30N 40°38' W 074°08'0 0.0
2017-Jun-20 04:00N 40°38' W 074°08'0 0.0
2017-Jun-20 03:30N 40°38' W 074°08'0 0.0
2017-Jun-20 03:00N 40°38' W 074°08'0 0.0
2017-Jun-20 02:27N 40°38' W 074°08'0 0.0
2017-Jun-20 01:57N 40°38' W 074°08'0 0.0
2017-Jun-20 01:30N 40°38' W 074°08'2 4.7
2017-Jun-20 01:01N 40°39' W 074°05'2 3.5
2017-Jun-20 00:29N 40°39' W 074°02'0 0.0
2017-Jun-19 23:59N 40°39' W 074°02'0 0.0
2017-Jun-19 23:29N 40°39' W 074°02'0 0.0
2017-Jun-19 22:59N 40°39' W 074°02'0 0.0
2017-Jun-19 22:29N 40°39' W 074°02'0 0.0
2017-Jun-19 21:59N 40°39' W 074°02'0 0.0
2017-Jun-19 21:29N 40°39' W 074°02'0 0.1
2017-Jun-19 20:59N 40°39' W 074°02'0 0.0
2017-Jun-19 20:29N 40°39' W 074°02'0 0.1
2017-Jun-19 19:59N 40°39' W 074°03'1 1.7
2017-Jun-19 19:30N 40°39' W 074°04'3 4.7
2017-Jun-19 18:49N 40°38' W 074°08'0 0.0
2017-Jun-19 18:25N 40°38' W 074°08'0 0.0
2017-Jun-19 17:55N 40°38' W 074°08'0 0.0
2017-Jun-19 17:25N 40°38' W 074°08'0 0.0
2017-Jun-19 16:55N 40°38' W 074°08'0 0.0
2017-Jun-19 16:25N 40°38' W 074°08'0 0.0
2017-Jun-19 15:55N 40°38' W 074°08'0 0.0
2017-Jun-19 15:25N 40°38' W 074°08'0 0.0
2017-Jun-19 14:58N 40°38' W 074°08'0 0.0
2017-Jun-19 13:49N 40°38' W 074°08'0 0.0
2017-Jun-19 13:25N 40°38' W 074°08'0 0.0
2017-Jun-19 12:49N 40°38' W 074°08'0 0.0
2017-Jun-19 12:25N 40°38' W 074°08'0 0.0
2017-Jun-19 11:49N 40°38' W 074°08'0 0.0
2017-Jun-19 11:25N 40°38' W 074°08'2 5.1
2017-Jun-19 11:00N 40°40' W 074°08'1 2.9
2017-Jun-19 10:31N 40°42' W 074°09'0 0.1
2017-Jun-19 10:01N 40°42' W 074°09'1 2.1
2017-Jun-19 09:31N 40°41' W 074°08'3 5.0
2017-Jun-19 09:00N 40°39' W 074°08'4 7.3
2017-Jun-19 08:30N 40°39' W 074°04'3 6.4
2017-Jun-19 08:00N 40°38' W 074°08'0 0.1
2017-Jun-19 07:30N 40°38' W 074°08'0 0.0
2017-Jun-19 07:00N 40°38' W 074°08'0 0.0
2017-Jun-19 06:30N 40°38' W 074°08'0 0.0
2017-Jun-19 06:00N 40°38' W 074°08'0 0.0
2017-Jun-19 05:29N 40°38' W 074°08'0 0.0
2017-Jun-19 05:00N 40°38' W 074°08'0 0.0
2017-Jun-19 04:29N 40°38' W 074°08'0 0.0
2017-Jun-19 04:00N 40°38' W 074°08'0 0.0
2017-Jun-19 03:30N 40°38' W 074°08'0 0.0
2017-Jun-19 03:00N 40°38' W 074°08'0 0.0
2017-Jun-19 02:30N 40°38' W 074°08'0 0.0
2017-Jun-19 02:00N 40°38' W 074°08'0 0.0
2017-Jun-19 01:30N 40°38' W 074°08'0 0.0
2017-Jun-19 01:00N 40°38' W 074°08'0 0.0
2017-Jun-19 00:30N 40°38' W 074°08'0 0.0
2017-Jun-19 00:00N 40°38' W 074°08'0 0.0
2017-Jun-18 23:30N 40°38' W 074°08'0 0.0
2017-Jun-18 23:00N 40°38' W 074°08'0 0.0
2017-Jun-18 22:30N 40°38' W 074°08'0 0.0
2017-Jun-18 22:00N 40°38' W 074°08'0 0.0
2017-Jun-18 21:30N 40°38' W 074°08'0 0.0
2017-Jun-18 21:00N 40°38' W 074°08'0 0.0
2017-Jun-18 20:29N 40°38' W 074°08'0 0.0
2017-Jun-18 20:00N 40°38' W 074°08'0 0.0
2017-Jun-18 19:30N 40°38' W 074°08'0 0.0
2017-Jun-18 19:00N 40°38' W 074°08'0 0.0
2017-Jun-18 18:30N 40°38' W 074°08'0 0.0
2017-Jun-18 18:00N 40°38' W 074°08'0 0.0
2017-Jun-18 17:30N 40°38' W 074°08'0 0.0
2017-Jun-18 17:00N 40°38' W 074°08'2 4.4
2017-Jun-18 16:29N 40°39' W 074°11'5 3.0
2017-Jun-18 14:46N 40°34' W 074°13'5 5.9
2017-Jun-18 13:59N 40°38' W 074°12'3 6.4
2017-Jun-18 13:30N 40°39' W 074°08'3 5.7
2017-Jun-18 13:00N 40°39' W 074°04'0 0.6
2017-Jun-18 12:30N 40°38' W 074°04'3 5.4
2017-Jun-18 11:58N 40°38' W 074°08'0 0.0
2017-Jun-18 11:16N 40°38' W 074°08'0 0.0
2017-Jun-18 10:52N 40°38' W 074°08'0 0.0
2017-Jun-18 10:16N 40°38' W 074°08'0 0.0
2017-Jun-18 09:52N 40°38' W 074°08'0 0.0
2017-Jun-18 09:28N 40°38' W 074°08'0 0.0
2017-Jun-18 08:52N 40°38' W 074°08'0 0.0
2017-Jun-18 08:22N 40°38' W 074°08'0 0.0
2017-Jun-18 07:58N 40°38' W 074°08'0 0.0
2017-Jun-18 07:28N 40°38' W 074°08'0 0.0
2017-Jun-18 06:58N 40°38' W 074°08'0 0.0
2017-Jun-18 06:28N 40°38' W 074°08'0 0.0
2017-Jun-18 05:58N 40°38' W 074°08'0 0.0
2017-Jun-18 05:28N 40°38' W 074°08'0 0.0
2017-Jun-18 04:58N 40°38' W 074°08'0 0.0
2017-Jun-18 04:28N 40°38' W 074°08'0 0.0
2017-Jun-18 03:58N 40°38' W 074°08'0 0.0
2017-Jun-18 03:22N 40°38' W 074°08'0 0.0
2017-Jun-18 03:00N 40°38' W 074°08'0 0.0
2017-Jun-17 21:10N 40°38' W 074°08'0 0.0
2017-Jun-17 20:52N 40°38' W 074°08'0 0.0
2017-Jun-17 20:28N 40°38' W 074°08'0 0.0
2017-Jun-17 19:58N 40°38' W 074°08'0 0.0
2017-Jun-17 19:28N 40°38' W 074°08'0 0.0
2017-Jun-17 18:55N 40°38' W 074°08'0 0.0
2017-Jun-17 18:28N 40°38' W 074°08'0 0.0
2017-Jun-17 17:58N 40°38' W 074°08'0 0.0
2017-Jun-17 17:25N 40°38' W 074°08'0 0.0
2017-Jun-17 16:58N 40°38' W 074°08'0 0.0
2017-Jun-17 16:28N 40°38' W 074°08'0 0.0
2017-Jun-17 15:55N 40°38' W 074°08'0 0.0
2017-Jun-17 15:13N 40°38' W 074°08'0 0.0
2017-Jun-17 14:55N 40°38' W 074°08'0 0.0
2017-Jun-17 14:25N 40°38' W 074°08'0 0.0
2017-Jun-17 12:49N 40°38' W 074°08'0 0.0
2017-Jun-17 12:19N 40°38' W 074°08'0 0.0
2017-Jun-17 11:49N 40°38' W 074°08'0 0.0
2017-Jun-17 11:25N 40°38' W 074°08'0 0.0
2017-Jun-17 10:54N 40°38' W 074°08'1 1.2
2017-Jun-17 10:23N 40°39' W 074°07'1 1.6
2017-Jun-17 09:59N 40°38' W 074°08'0 0.0
2017-Jun-17 09:29N 40°38' W 074°08'0 0.0
2017-Jun-17 08:59N 40°38' W 074°08'0 0.0
2017-Jun-17 08:29N 40°38' W 074°08'0 0.0
2017-Jun-17 07:59N 40°38' W 074°08'0 0.0
2017-Jun-17 07:29N 40°38' W 074°08'0 0.0
2017-Jun-17 06:59N 40°38' W 074°08'0 0.0
2017-Jun-17 06:29N 40°38' W 074°08'0 0.0
2017-Jun-17 05:59N 40°38' W 074°08'0 0.0
2017-Jun-17 05:29N 40°38' W 074°08'0 0.0
2017-Jun-17 04:59N 40°38' W 074°08'0 0.0
2017-Jun-17 04:29N 40°38' W 074°08'0 0.0
2017-Jun-17 03:59N 40°38' W 074°08'0 0.0
2017-Jun-17 03:29N 40°38' W 074°08'0 0.0
2017-Jun-17 02:59N 40°38' W 074°08'0 0.0
2017-Jun-17 02:29N 40°38' W 074°08'0 0.0
2017-Jun-17 01:59N 40°38' W 074°08'0 0.0
2017-Jun-17 01:29N 40°38' W 074°08'0 0.0
2017-Jun-17 00:59N 40°38' W 074°08'0 0.0
2017-Jun-17 00:29N 40°38' W 074°08'0 0.0
2017-Jun-16 23:59N 40°38' W 074°08'0 0.0
2017-Jun-16 23:29N 40°38' W 074°08'0 0.0
2017-Jun-16 22:59N 40°38' W 074°08'0 0.0
2017-Jun-16 22:29N 40°38' W 074°08'0 0.0
2017-Jun-16 21:56N 40°38' W 074°08'0 0.0
2017-Jun-16 21:29N 40°38' W 074°08'0 0.0
2017-Jun-16 20:59N 40°38' W 074°08'3 5.3
2017-Jun-16 20:28N 40°41' W 074°08'1 1.2
2017-Jun-16 19:57N 40°42' W 074°08'0 0.2
2017-Jun-16 19:21N 40°42' W 074°09'0 0.0
2017-Jun-16 18:57N 40°42' W 074°09'0 0.0
2017-Jun-16 18:27N 40°42' W 074°09'0 0.0
2017-Jun-16 17:56N 40°42' W 074°09'0 0.0
2017-Jun-16 17:26N 40°42' W 074°09'0 0.0
2017-Jun-16 16:59N 40°42' W 074°09'0 0.0
2017-Jun-16 16:29N 40°42' W 074°09'0 0.6
2017-Jun-16 15:59N 40°42' W 074°09'0 0.7
2017-Jun-16 15:25N 40°42' W 074°08'2 4.7
2017-Jun-16 15:00N 40°40' W 074°08'1 1.4
2017-Jun-16 14:00N 40°38' W 074°08'0 0.0
2017-Jun-16 13:30N 40°38' W 074°08'0 0.0
2017-Jun-16 13:00N 40°38' W 074°08'1 1.0
2017-Jun-16 12:30N 40°39' W 074°07'3 5.6
2017-Jun-16 12:00N 40°39' W 074°04'3 6.5
2017-Jun-16 11:30N 40°38' W 074°08'0 0.0
2017-Jun-16 11:00N 40°38' W 074°08'0 0.0
2017-Jun-16 10:30N 40°38' W 074°08'0 0.0
2017-Jun-16 10:00N 40°38' W 074°08'0 0.0
2017-Jun-16 09:30N 40°38' W 074°08'0 0.0
2017-Jun-16 09:00N 40°38' W 074°08'0 0.0
2017-Jun-16 08:30N 40°38' W 074°08'0 0.0
2017-Jun-16 07:59N 40°38' W 074°08'0 0.0
2017-Jun-16 07:30N 40°38' W 074°08'0 0.0
2017-Jun-16 06:59N 40°38' W 074°08'0 0.0
2017-Jun-16 06:30N 40°38' W 074°08'0 0.0
2017-Jun-16 06:00N 40°38' W 074°08'0 0.0
2017-Jun-16 05:30N 40°38' W 074°08'3 5.7
2017-Jun-16 05:00N 40°38' W 074°12'3 5.4
2017-Jun-16 04:23N 40°35' W 074°12'0 0.2
2017-Jun-16 03:52N 40°35' W 074°13'0 0.0
2017-Jun-16 03:28N 40°35' W 074°13'0 0.9
2017-Jun-16 02:58N 40°35' W 074°12'0 0.0
2017-Jun-16 02:26N 40°35' W 074°12'1 2.2
2017-Jun-16 02:00N 40°34' W 074°13'4 6.6
2017-Jun-16 01:27N 40°31' W 074°15'0 0.0
2017-Jun-16 00:59N 40°31' W 074°15'0 0.1
2017-Jun-16 00:30N 40°31' W 074°15'2 0.5
2017-Jun-15 20:39N 40°33' W 074°15'210.1
2017-Jun-15 20:27N 40°34' W 074°13'4 9.9
2017-Jun-15 20:00N 40°38' W 074°12'3 5.7
2017-Jun-15 19:30N 40°38' W 074°08'0 0.0
2017-Jun-15 19:00N 40°38' W 074°08'0 0.0
2017-Jun-15 18:30N 40°38' W 074°08'0 0.9
2017-Jun-15 18:00N 40°39' W 074°07'2 3.4
2017-Jun-15 17:30N 40°39' W 074°05'0 0.3
2017-Jun-15 17:01N 40°39' W 074°05'1 2.4
2017-Jun-15 16:30N 40°39' W 074°07'0 0.0
2017-Jun-15 16:00N 40°39' W 074°07'0 0.4
2017-Jun-15 15:30N 40°39' W 074°07'1 1.4
2017-Jun-15 14:55N 40°38' W 074°08'0 0.0
2017-Jun-15 14:28N 40°38' W 074°08'0 0.0
2017-Jun-15 13:28N 40°38' W 074°08'0 0.0
2017-Jun-15 12:58N 40°38' W 074°08'0 0.0
2017-Jun-15 12:28N 40°38' W 074°08'0 0.0
2017-Jun-15 11:58N 40°38' W 074°08'0 0.0
2017-Jun-15 11:28N 40°38' W 074°08'0 0.0
2017-Jun-15 11:01N 40°38' W 074°08'0 0.0
2017-Jun-15 10:31N 40°38' W 074°08'3 5.7
2017-Jun-15 10:01N 40°39' W 074°04'1 2.6
2017-Jun-15 09:30N 40°39' W 074°02'510.4
2017-Jun-15 09:00N 40°45' W 074°01'3 5.3
2017-Jun-15 08:30N 40°47' W 073°60'0 0.2
2017-Jun-15 08:00N 40°47' W 073°60'0 0.1
2017-Jun-15 07:30N 40°47' W 073°60'0 0.0
2017-Jun-15 07:00N 40°47' W 073°60'0 0.0
2017-Jun-15 06:30N 40°47' W 073°60'0 0.0
2017-Jun-15 06:00N 40°47' W 073°60'0 0.0
2017-Jun-15 05:30N 40°47' W 073°60'0 0.0
2017-Jun-15 05:00N 40°47' W 073°60'0 0.0
2017-Jun-15 04:30N 40°47' W 073°60'0 0.0
2017-Jun-15 04:00N 40°47' W 073°60'0 0.0
2017-Jun-15 03:30N 40°47' W 073°60'0 0.0
2017-Jun-15 03:00N 40°47' W 073°60'0 0.1
2017-Jun-15 02:27N 40°47' W 073°60'0 0.0
2017-Jun-15 02:00N 40°47' W 073°60'0 0.1
2017-Jun-15 01:30N 40°47' W 073°60'0 0.0
2017-Jun-15 01:00N 40°47' W 073°60'0 0.0
2017-Jun-15 00:30N 40°47' W 073°60'0 0.0
2017-Jun-15 00:00N 40°47' W 073°60'0 0.0
2017-Jun-14 23:30N 40°47' W 073°60'0 0.0
2017-Jun-14 23:00N 40°47' W 073°60'0 0.0
2017-Jun-14 22:30N 40°47' W 073°60'0 0.0
2017-Jun-14 22:00N 40°47' W 073°60'0 0.0
2017-Jun-14 21:30N 40°47' W 073°60'0 0.2
2017-Jun-14 21:00N 40°47' W 073°60'0 0.1
2017-Jun-14 20:30N 40°47' W 073°60'0 0.0
2017-Jun-14 20:00N 40°47' W 073°60'0 0.0
2017-Jun-14 19:30N 40°47' W 073°60'2 4.7
2017-Jun-14 19:00N 40°45' W 074°01'5 9.4
2017-Jun-14 18:31N 40°41' W 074°02'2 4.9
2017-Jun-14 18:01N 40°38' W 074°04'0 0.1
2017-Jun-14 17:30N 40°38' W 074°04'0 0.1
2017-Jun-14 17:01N 40°38' W 074°04'0 0.2
2017-Jun-14 16:31N 40°38' W 074°04'0 0.1
2017-Jun-14 16:00N 40°39' W 074°04'2 4.0
2017-Jun-14 15:30N 40°40' W 074°03'2 4.8
2017-Jun-14 15:01N 40°43' W 074°02'5 5.2
2017-Jun-14 14:00N 40°47' W 073°59'0 0.1
2017-Jun-14 13:30N 40°48' W 073°59'0 0.0
2017-Jun-14 13:00N 40°48' W 073°59'0 0.0
2017-Jun-14 12:30N 40°48' W 073°59'0 0.0
2017-Jun-14 12:00N 40°48' W 073°59'0 0.0
2017-Jun-14 11:30N 40°48' W 073°59'0 0.0
2017-Jun-14 11:00N 40°48' W 073°59'0 0.0
2017-Jun-14 10:30N 40°48' W 073°59'0 0.0
2017-Jun-14 10:00N 40°48' W 073°59'0 0.0
2017-Jun-14 09:30N 40°48' W 073°59'0 0.0
2017-Jun-14 09:00N 40°48' W 073°59'0 0.0
2017-Jun-14 08:30N 40°48' W 073°59'0 0.0
2017-Jun-14 08:00N 40°48' W 073°59'0 0.1
2017-Jun-14 07:27N 40°48' W 073°59'0 0.1
2017-Jun-14 07:00N 40°48' W 073°59'0 0.1
2017-Jun-14 06:30N 40°48' W 073°59'0 0.0
2017-Jun-14 06:00N 40°48' W 073°59'0 0.0
2017-Jun-14 05:30N 40°48' W 073°59'0 0.0
2017-Jun-14 05:00N 40°48' W 073°59'0 0.0
2017-Jun-14 04:30N 40°48' W 073°59'0 0.0
2017-Jun-14 04:00N 40°48' W 073°59'0 0.0
2017-Jun-14 03:30N 40°48' W 073°59'0 0.0
2017-Jun-14 03:00N 40°48' W 073°59'0 0.0
2017-Jun-14 02:30N 40°48' W 073°59'0 0.1
2017-Jun-14 02:00N 40°48' W 073°59'0 0.2
2017-Jun-14 01:30N 40°48' W 073°59'0 0.0
2017-Jun-14 01:00N 40°48' W 073°59'0 0.0
2017-Jun-14 00:27N 40°48' W 073°59'0 0.0
2017-Jun-14 00:00N 40°48' W 073°59'0 0.0
2017-Jun-13 23:30N 40°48' W 073°59'0 0.0
2017-Jun-13 23:00N 40°48' W 073°59'0 0.0
2017-Jun-13 22:30N 40°48' W 073°59'0 0.0
2017-Jun-13 22:00N 40°48' W 073°59'0 0.0
2017-Jun-13 21:30N 40°48' W 073°59'0 0.0
2017-Jun-13 20:57N 40°48' W 073°59'0 0.0
2017-Jun-13 20:30N 40°48' W 073°59'0 0.0
2017-Jun-13 20:00N 40°48' W 073°59'0 0.1
2017-Jun-13 19:30N 40°48' W 073°59'0 0.1
2017-Jun-13 19:00N 40°48' W 073°59'0 0.1
2017-Jun-13 18:30N 40°48' W 073°59'0 0.0
2017-Jun-13 18:00N 40°48' W 073°59'0 0.0
2017-Jun-13 17:30N 40°48' W 073°59'0 0.1
2017-Jun-13 17:00N 40°48' W 073°59'0 0.0
2017-Jun-13 16:30N 40°48' W 073°59'0 0.0
2017-Jun-13 16:00N 40°48' W 073°59'0 0.0
2017-Jun-13 15:30N 40°48' W 073°59'0 0.1
2017-Jun-13 15:00N 40°48' W 073°59'0 0.0
2017-Jun-13 13:59N 40°48' W 073°59'0 0.1
2017-Jun-13 13:29N 40°48' W 073°59'0 0.0
2017-Jun-13 12:59N 40°48' W 073°59'0 0.0
2017-Jun-13 12:23N 40°48' W 073°59'0 0.0
2017-Jun-13 11:59N 40°48' W 073°59'0 0.0
2017-Jun-13 11:27N 40°48' W 073°59'0 0.0
2017-Jun-13 10:59N 40°48' W 073°59'0 0.0
2017-Jun-13 10:29N 40°48' W 073°59'0 0.0
2017-Jun-13 09:59N 40°48' W 073°59'0 0.0
2017-Jun-13 09:29N 40°48' W 073°59'0 0.0
2017-Jun-13 08:59N 40°48' W 073°59'0 0.0
2017-Jun-13 08:29N 40°48' W 073°59'0 0.0
2017-Jun-13 07:53N 40°48' W 073°59'0 0.0
2017-Jun-13 07:29N 40°48' W 073°59'0 0.1
2017-Jun-13 06:59N 40°48' W 073°59'0 0.1
2017-Jun-13 06:29N 40°48' W 073°59'0 0.0
2017-Jun-13 05:59N 40°48' W 073°59'0 0.0
2017-Jun-13 05:29N 40°48' W 073°59'  

Dump ship's entire track history